Terminal Aerodrome Forecast
Issued by NWS Bismarck, ND

Home | Current Version | Previous Version | Graphics & Text | Print | Product List | Glossary On
Versions: 1 2 3 4 5 6 7 8 9 10 11 12 13 14 15 16 17 18 19
582
FTUS43 KBIS 161014 AAA
TAFISN
TAF AMD
KISN 161014Z 1610/1706 VRB05KT 6SM -SHRA BKN035 OVC060
     FM161800 06011KT 6SM -SHRA OVC025
     FM170000 04012KT P6SM OVC025=

USA.gov is the U.S. government's official web portal to all federal, state and local government web resources and services.